Main page
METAR-TAF:

METAR-TAF

Airports :

Hugoton Municipal Airport

Hugoton, Kansas, United States

latitude: 37-09-47N, longitude: 101-22-14W, elevation: 3132 ft

Current weather observation

The report was made 27 minutes ago, at 07:35 UTC
Wind 14 mph from the South
Temperature 70°F
Humidity 73%
Pressure 30.04 in. Hg
Visibility: 10 miles
Clear sky

METAR: KHQG 140735Z AUTO 19012KT 10SM CLR 21/16 A3004 RMK AO2 PRESRR

Time: 03:02 (08:02 UTC)


TAF: missing

Weather observations and forecasts of more than 4000 airports (METAR and TAF reports).

The available stations are represented by yellow and red dots on the map.

Hover mouse over dot to see the name of the station.

Then click to see weather observations and forecasts.

To change the map : click on the green buttons with a black cross to zoom in, on the green button with a dash to zoom out, or on the green arrows for adjacent maps.


METAR-TAF: